Lions Gate Bridge — H9LV — position and weather

sailwx.info

Track history (hours):
 
Tides and Currents Weather Stations Pressure Air Temp Water Temp Dewpoint Dewpoint Depression Visibility Wind Speed Wind Dir Waves Ship Positions

Lions Gate Bridge

Last reported at 2015-Jul-05 01:32 UTC. Time now 2015-Jul-07 17:38 UTC.
Position N 48°31' W 132°23'.

Length 284.7 m; beam 40 m.

Type: Cargo ship. MMSI: 351086000.

Date/timePositionNaut miles runAvg speedWind from/ knotsBaromVisibWave heightAir tempDewpointWater temp
2015-Jul-05 01:32N 48°31' W 132°23'16814.0
2015-Jul-04 13:33N 48°30' W 128°09'1313.4
2015-Jul-04 12:33N 48°30' W 127°49'1313.1
2015-Jul-04 11:32N 48°31' W 127°29'1313.0
2015-Jul-04 10:33N 48°31' W 127°10'1313.0
2015-Jul-04 09:33N 48°31' W 126°50'1313.2
2015-Jul-04 08:33N 48°30' W 126°30'1413.9
2015-Jul-04 07:34N 48°31' W 126°09'1414.5
2015-Jul-04 06:34N 48°31' W 125°47'1515.2
2015-Jul-04 05:33N 48°31' W 125°24'1616.1
2015-Jul-04 04:33N 48°31' W 125°00'1615.6
2015-Jul-04 03:33N 48°29' W 124°37'1515.2
2015-Jul-04 02:34N 48°23' W 124°16'1514.7
2015-Jul-04 01:33N 48°18' W 123°55'1413.9
2015-Jul-04 00:33N 48°16' W 123°35'1111.0
2015-Jul-03 23:33N 48°24' W 123°23'1111.2
2015-Jul-03 22:33N 48°33' W 123°13'1515.0
2015-Jul-03 21:33N 48°46' W 123°03'1817.7
2015-Jul-03 20:33N 49°00' W 123°19'1818.2
2015-Jul-03 19:33N 49°19' W 123°18'9 8.6
2015-Jul-03 18:33N 49°17' W 123°05'0 0.0
2015-Jul-03 17:33N 49°17' W 123°04'0 0.0
2015-Jul-03 16:33N 49°17' W 123°04'0 0.0
2015-Jul-03 15:33N 49°17' W 123°04'0 0.0
2015-Jul-03 14:33N 49°17' W 123°04'0 0.0
2015-Jul-03 13:33N 49°17' W 123°04'0 0.0
2015-Jul-03 12:33N 49°17' W 123°04'0 0.0
2015-Jul-03 11:33N 49°17' W 123°04'0 0.0
2015-Jul-03 10:33N 49°17' W 123°04'0 0.0
2015-Jul-03 09:33N 49°17' W 123°04'0 0.0
2015-Jul-03 08:33N 49°17' W 123°04'0 0.0
2015-Jul-03 07:33N 49°17' W 123°04'0 0.0
2015-Jul-03 06:33N 49°17' W 123°05'0 0.0
2015-Jul-03 05:33N 49°17' W 123°04'0 0.0
2015-Jul-03 04:33N 49°17' W 123°04'0 0.0
2015-Jul-03 03:33N 49°17' W 123°04'0 0.0
2015-Jul-03 02:33N 49°17' W 123°04'0 0.0
2015-Jul-03 01:33N 49°17' W 123°05'0 0.0
2015-Jul-03 00:33N 49°17' W 123°04'0 0.0
2015-Jul-02 23:33N 49°17' W 123°04'0 0.0
2015-Jul-02 22:33N 49°17' W 123°04'0 0.0
2015-Jul-02 21:33N 49°17' W 123°04'0 0.0
2015-Jul-02 20:33N 49°17' W 123°04'0 0.0
2015-Jul-02 19:33N 49°17' W 123°04'0 0.0
2015-Jul-02 18:33N 49°17' W 123°05'0 0.0
2015-Jul-02 17:33N 49°17' W 123°04'0 0.0
2015-Jul-02 16:33N 49°17' W 123°05'0 0.0
2015-Jul-02 15:33N 49°17' W 123°04'0 0.0
2015-Jul-02 14:33N 49°17' W 123°05'0 0.0
2015-Jul-02 13:33N 49°17' W 123°04'0 0.0
2015-Jul-02 12:33N 49°17' W 123°04'0 0.0
2015-Jul-02 11:33N 49°17' W 123°04'0 0.0
2015-Jul-02 10:33N 49°17' W 123°05'9 9.1
2015-Jul-02 09:33N 49°16' W 123°18'1818.0
2015-Jul-02 08:34N 48°58' W 123°12'1514.6
2015-Jul-02 07:33N 48°44' W 123°08'1717.0
2015-Jul-02 06:33N 48°27' W 123°10'1413.6
2015-Jul-02 05:33N 48°18' W 123°25'10 9.7
2015-Jul-02 04:33N 48°09' W 123°18'1717.3
2015-Jul-02 03:33N 48°12' W 122°52'2019.6
2015-Jul-02 02:33N 47°57' W 122°32'1918.9
2015-Jul-02 01:34N 47°38' W 122°27'1716.8
2015-Jul-02 00:34N 47°22' W 122°22'6 5.5
2015-Jul-01 23:32N 47°17' W 122°25'0 0.0
2015-Jul-01 22:32N 47°17' W 122°25'0 0.0
2015-Jul-01 21:32N 47°17' W 122°25'0 0.0
2015-Jul-01 20:32N 47°17' W 122°25'0 0.0
2015-Jul-01 19:32N 47°17' W 122°25'0 0.0
2015-Jul-01 18:32N 47°17' W 122°25'0 0.0
2015-Jul-01 17:32N 47°17' W 122°25'0 0.0
2015-Jul-01 16:26N 47°17' W 122°25'0 0.0
2015-Jul-01 15:32N 47°17' W 122°25'0 0.0
2015-Jul-01 14:32N 47°17' W 122°25'0 0.0
2015-Jul-01 13:32N 47°17' W 122°25'0 0.0
2015-Jul-01 12:32N 47°17' W 122°25'0 0.0
2015-Jul-01 11:32N 47°17' W 122°25'0 0.0
2015-Jul-01 10:32N 47°17' W 122°25'0 0.0
2015-Jul-01 09:29N 47°17' W 122°25'0 0.0
2015-Jul-01 08:32N 47°17' W 122°25'0 0.0
2015-Jul-01 07:29N 47°17' W 122°25'0 0.0
2015-Jul-01 06:32N 47°17' W 122°25'0 0.0
2015-Jul-01 05:32N 47°17' W 122°25'0 0.0
2015-Jul-01 04:32N 47°17' W 122°25'0 0.0
2015-Jul-01 03:32N 47°17' W 122°25'0 0.0
2015-Jul-01 02:32N 47°17' W 122°25'0 0.0
2015-Jul-01 01:32N 47°17' W 122°25'0 0.0
2015-Jul-01 00:32N 47°17' W 122°25'0 0.0
2015-Jun-30 23:33N 47°17' W 122°25'0 0.0
2015-Jun-30 22:33N 47°17' W 122°25'0 0.0
2015-Jun-30 21:33N 47°17' W 122°25'0 0.0
2015-Jun-30 20:33N 47°17' W 122°25'0 0.0
2015-Jun-30 19:33N 47°17' W 122°25'0 0.0
2015-Jun-30 18:33N 47°17' W 122°25'0 0.0
2015-Jun-30 17:33N 47°17' W 122°25'0 0.0
2015-Jun-30 16:33N 47°17' W 122°25'0 0.0
2015-Jun-30 15:33N 47°17' W 122°25'0 0.0
2015-Jun-30 14:33N 47°17' W 122°25'0 0.0
2015-Jun-30 13:33N 47°17' W 122°25'0 0.0
2015-Jun-30 12:33N 47°17' W 122°25'0 0.0
2015-Jun-30 11:30N 47°17' W 122°25'0 0.0
2015-Jun-30 10:33N 47°17' W 122°25'0 0.0
2015-Jun-30 09:33N 47°17' W 122°25'0 0.0
2015-Jun-30 08:33N 47°17' W 122°25'0 0.0
2015-Jun-30 07:33N 47°17' W 122°25'0 0.0
2015-Jun-30 06:33N 47°17' W 122°25'0 0.0
2015-Jun-30 05:33N 47°17' W 122°25'0 0.0
2015-Jun-30 04:33N 47°17' W 122°25'0 0.0
2015-Jun-30 03:33N 47°17' W 122°25'0 0.0
2015-Jun-30 02:33N 47°17' W 122°25'0 0.0
2015-Jun-30 01:33N 47°17' W 122°25'0 0.0
2015-Jun-30 00:33N 47°17' W 122°25'0 0.0
2015-Jun-29 23:33N 47°17' W 122°25'0 0.0
2015-Jun-29 22:33N 47°17' W 122°25'0 0.0
2015-Jun-29 21:33N 47°17' W 122°25'0 0.0
2015-Jun-29 20:33N 47°17' W 122°25'0 0.0
2015-Jun-29 19:33N 47°17' W 122°25'0 0.0
2015-Jun-29 18:33N 47°17' W 122°25'0 0.0
2015-Jun-29 17:33N 47°17' W 122°25'0 0.0
2015-Jun-29 16:33N 47°17' W 122°25'0 0.0
2015-Jun-29 15:33N 47°17' W 122°25'0 0.0
2015-Jun-29 14:33N 47°17' W 122°25'0 0.0
2015-Jun-29 13:33N 47°17' W 122°25'0 0.0
2015-Jun-29 12:30N 47°17' W 122°25'0 0.0
2015-Jun-29 11:33N 47°17' W 122°25'0 0.0
2015-Jun-29 10:33N 47°17' W 122°25'0 0.0
2015-Jun-29 09:30N 47°17' W 122°25'0 0.0
2015-Jun-29 08:33N 47°17' W 122°25'0 0.0
2015-Jun-29 07:33N 47°17' W 122°25'0 0.0
2015-Jun-29 06:33N 47°17' W 122°25'0 0.0
2015-Jun-29 05:33N 47°17' W 122°25'0 0.0
2015-Jun-29 04:33N 47°17' W 122°25'0 0.0
2015-Jun-29 03:33N 47°17' W 122°25'0 0.0
2015-Jun-29 02:33N 47°17' W 122°25'0 0.0
2015-Jun-29 01:33N 47°17' W 122°25'0 0.0
2015-Jun-29 00:30N 47°17' W 122°25'0 0.0
2015-Jun-28 23:33N 47°17' W 122°25'0 0.0
2015-Jun-28 22:33N 47°17' W 122°25'0 0.0
2015-Jun-28 21:33N 47°17' W 122°25'0 0.0
2015-Jun-28 20:30N 47°17' W 122°25'5 5.5
2015-Jun-28 19:33N 47°22' W 122°24'1717.3
2015-Jun-28 18:33N 47°39' W 122°28'1919.3
2015-Jun-28 17:33N 47°58' W 122°35'1918.8
2015-Jun-28 16:33N 48°11' W 122°54'1919.0
2015-Jun-28 15:33N 48°10' W 123°23'1413.8
2015-Jun-28 14:33N 48°13' W 123°43'1414.2
2015-Jun-28 13:33N 48°16' W 124°04'1616.1
2015-Jun-28 12:33N 48°23' W 124°26'1414.0
2015-Jun-28 11:33N 48°29' W 124°45'1313.4
2015-Jun-28 10:33N 48°28' W 125°05'1414.2
2015-Jun-28 09:33N 48°28' W 125°27'1414.2
2015-Jun-28 08:33N 48°29' W 125°48'1414.4
2015-Jun-28 07:33N 48°29' W 126°10'1514.7
2015-Jun-28 06:33N 48°29' W 126°32'1514.7
2015-Jun-28 05:33N 48°30' W 126°54'1514.8
2015-Jun-28 04:33N 48°30' W 127°16'1514.9
2015-Jun-28 03:33N 48°30' W 127°39'1614.8
2015-Jun-28 02:29N 48°31' W 128°03'9 7.6
2015-Jun-28 01:14N 48°31' W 128°17'1 1.5
2015-Jun-28 00:28N 48°31' W 128°19'1 0.7
2015-Jun-27 23:33N 48°31' W 128°20'4 4.1
2015-Jun-27 22:28N 48°31' W 128°27'1314.0
2015-Jun-27 21:32N 48°32' W 128°46'3013.9
2015-Jun-27 19:22N 48°32' W 129°32'2915.9
2015-Jun-27 17:33N 48°32' W 130°15'2018.8
2015-Jun-27 16:29N 48°32' W 130°45'2519.0
2015-Jun-27 15:10N 48°31' W 131°23'  
Track history (hours):
 
Tides and Currents Weather Stations Pressure Air Temp Water Temp Dewpoint Dewpoint Depression Visibility Wind Speed Wind Dir Waves Ship Positions

Lions Gate Bridge

Last reported at 2015-Jul-05 01:32 UTC. Time now 2015-Jul-07 17:38 UTC.
Position N 48°31' W 132°23'.

Length 284.7 m; beam 40 m.

Type: Cargo ship. MMSI: 351086000.

Date/timePositionNaut miles runAvg speedWind from/ knotsBaromVisibWave heightAir tempDewpointWater temp
2015-Jul-05 01:32N 48°31' W 132°23'16814.0
2015-Jul-04 13:33N 48°30' W 128°09'1313.4
2015-Jul-04 12:33N 48°30' W 127°49'1313.1
2015-Jul-04 11:32N 48°31' W 127°29'1313.0
2015-Jul-04 10:33N 48°31' W 127°10'1313.0
2015-Jul-04 09:33N 48°31' W 126°50'1313.2
2015-Jul-04 08:33N 48°30' W 126°30'1413.9
2015-Jul-04 07:34N 48°31' W 126°09'1414.5
2015-Jul-04 06:34N 48°31' W 125°47'1515.2
2015-Jul-04 05:33N 48°31' W 125°24'1616.1
2015-Jul-04 04:33N 48°31' W 125°00'1615.6
2015-Jul-04 03:33N 48°29' W 124°37'1515.2
2015-Jul-04 02:34N 48°23' W 124°16'1514.7
2015-Jul-04 01:33N 48°18' W 123°55'1413.9
2015-Jul-04 00:33N 48°16' W 123°35'1111.0
2015-Jul-03 23:33N 48°24' W 123°23'1111.2
2015-Jul-03 22:33N 48°33' W 123°13'1515.0
2015-Jul-03 21:33N 48°46' W 123°03'1817.7
2015-Jul-03 20:33N 49°00' W 123°19'1818.2
2015-Jul-03 19:33N 49°19' W 123°18'9 8.6
2015-Jul-03 18:33N 49°17' W 123°05'0 0.0
2015-Jul-03 17:33N 49°17' W 123°04'0 0.0
2015-Jul-03 16:33N 49°17' W 123°04'0 0.0
2015-Jul-03 15:33N 49°17' W 123°04'0 0.0
2015-Jul-03 14:33N 49°17' W 123°04'0 0.0
2015-Jul-03 13:33N 49°17' W 123°04'0 0.0
2015-Jul-03 12:33N 49°17' W 123°04'0 0.0
2015-Jul-03 11:33N 49°17' W 123°04'0 0.0
2015-Jul-03 10:33N 49°17' W 123°04'0 0.0
2015-Jul-03 09:33N 49°17' W 123°04'0 0.0
2015-Jul-03 08:33N 49°17' W 123°04'0 0.0
2015-Jul-03 07:33N 49°17' W 123°04'0 0.0
2015-Jul-03 06:33N 49°17' W 123°05'0 0.0
2015-Jul-03 05:33N 49°17' W 123°04'0 0.0
2015-Jul-03 04:33N 49°17' W 123°04'0 0.0
2015-Jul-03 03:33N 49°17' W 123°04'0 0.0
2015-Jul-03 02:33N 49°17' W 123°04'0 0.0
2015-Jul-03 01:33N 49°17' W 123°05'0 0.0
2015-Jul-03 00:33N 49°17' W 123°04'0 0.0
2015-Jul-02 23:33N 49°17' W 123°04'0 0.0
2015-Jul-02 22:33N 49°17' W 123°04'0 0.0
2015-Jul-02 21:33N 49°17' W 123°04'0 0.0
2015-Jul-02 20:33N 49°17' W 123°04'0 0.0
2015-Jul-02 19:33N 49°17' W 123°04'0 0.0
2015-Jul-02 18:33N 49°17' W 123°05'0 0.0
2015-Jul-02 17:33N 49°17' W 123°04'0 0.0
2015-Jul-02 16:33N 49°17' W 123°05'0 0.0
2015-Jul-02 15:33N 49°17' W 123°04'0 0.0
2015-Jul-02 14:33N 49°17' W 123°05'0 0.0
2015-Jul-02 13:33N 49°17' W 123°04'0 0.0
2015-Jul-02 12:33N 49°17' W 123°04'0 0.0
2015-Jul-02 11:33N 49°17' W 123°04'0 0.0
2015-Jul-02 10:33N 49°17' W 123°05'9 9.1
2015-Jul-02 09:33N 49°16' W 123°18'1818.0
2015-Jul-02 08:34N 48°58' W 123°12'1514.6
2015-Jul-02 07:33N 48°44' W 123°08'1717.0
2015-Jul-02 06:33N 48°27' W 123°10'1413.6
2015-Jul-02 05:33N 48°18' W 123°25'10 9.7
2015-Jul-02 04:33N 48°09' W 123°18'1717.3
2015-Jul-02 03:33N 48°12' W 122°52'2019.6
2015-Jul-02 02:33N 47°57' W 122°32'1918.9
2015-Jul-02 01:34N 47°38' W 122°27'1716.8
2015-Jul-02 00:34N 47°22' W 122°22'6 5.5
2015-Jul-01 23:32N 47°17' W 122°25'0 0.0
2015-Jul-01 22:32N 47°17' W 122°25'0 0.0
2015-Jul-01 21:32N 47°17' W 122°25'0 0.0
2015-Jul-01 20:32N 47°17' W 122°25'0 0.0
2015-Jul-01 19:32N 47°17' W 122°25'0 0.0
2015-Jul-01 18:32N 47°17' W 122°25'0 0.0
2015-Jul-01 17:32N 47°17' W 122°25'0 0.0
2015-Jul-01 16:26N 47°17' W 122°25'0 0.0
2015-Jul-01 15:32N 47°17' W 122°25'0 0.0
2015-Jul-01 14:32N 47°17' W 122°25'0 0.0
2015-Jul-01 13:32N 47°17' W 122°25'0 0.0
2015-Jul-01 12:32N 47°17' W 122°25'0 0.0
2015-Jul-01 11:32N 47°17' W 122°25'0 0.0
2015-Jul-01 10:32N 47°17' W 122°25'0 0.0
2015-Jul-01 09:29N 47°17' W 122°25'0 0.0
2015-Jul-01 08:32N 47°17' W 122°25'0 0.0
2015-Jul-01 07:29N 47°17' W 122°25'0 0.0
2015-Jul-01 06:32N 47°17' W 122°25'0 0.0
2015-Jul-01 05:32N 47°17' W 122°25'0 0.0
2015-Jul-01 04:32N 47°17' W 122°25'0 0.0
2015-Jul-01 03:32N 47°17' W 122°25'0 0.0
2015-Jul-01 02:32N 47°17' W 122°25'0 0.0
2015-Jul-01 01:32N 47°17' W 122°25'0 0.0
2015-Jul-01 00:32N 47°17' W 122°25'0 0.0
2015-Jun-30 23:33N 47°17' W 122°25'0 0.0
2015-Jun-30 22:33N 47°17' W 122°25'0 0.0
2015-Jun-30 21:33N 47°17' W 122°25'0 0.0
2015-Jun-30 20:33N 47°17' W 122°25'0 0.0
2015-Jun-30 19:33N 47°17' W 122°25'0 0.0
2015-Jun-30 18:33N 47°17' W 122°25'0 0.0
2015-Jun-30 17:33N 47°17' W 122°25'0 0.0
2015-Jun-30 16:33N 47°17' W 122°25'0 0.0
2015-Jun-30 15:33N 47°17' W 122°25'0 0.0
2015-Jun-30 14:33N 47°17' W 122°25'0 0.0
2015-Jun-30 13:33N 47°17' W 122°25'0 0.0
2015-Jun-30 12:33N 47°17' W 122°25'0 0.0
2015-Jun-30 11:30N 47°17' W 122°25'0 0.0
2015-Jun-30 10:33N 47°17' W 122°25'0 0.0
2015-Jun-30 09:33N 47°17' W 122°25'0 0.0
2015-Jun-30 08:33N 47°17' W 122°25'0 0.0
2015-Jun-30 07:33N 47°17' W 122°25'0 0.0
2015-Jun-30 06:33N 47°17' W 122°25'0 0.0
2015-Jun-30 05:33N 47°17' W 122°25'0 0.0
2015-Jun-30 04:33N 47°17' W 122°25'0 0.0
2015-Jun-30 03:33N 47°17' W 122°25'0 0.0
2015-Jun-30 02:33N 47°17' W 122°25'0 0.0
2015-Jun-30 01:33N 47°17' W 122°25'0 0.0
2015-Jun-30 00:33N 47°17' W 122°25'0 0.0
2015-Jun-29 23:33N 47°17' W 122°25'0 0.0
2015-Jun-29 22:33N 47°17' W 122°25'0 0.0
2015-Jun-29 21:33N 47°17' W 122°25'0 0.0
2015-Jun-29 20:33N 47°17' W 122°25'0 0.0
2015-Jun-29 19:33N 47°17' W 122°25'0 0.0
2015-Jun-29 18:33N 47°17' W 122°25'0 0.0
2015-Jun-29 17:33N 47°17' W 122°25'0 0.0
2015-Jun-29 16:33N 47°17' W 122°25'0 0.0
2015-Jun-29 15:33N 47°17' W 122°25'0 0.0
2015-Jun-29 14:33N 47°17' W 122°25'0 0.0
2015-Jun-29 13:33N 47°17' W 122°25'0 0.0
2015-Jun-29 12:30N 47°17' W 122°25'0 0.0
2015-Jun-29 11:33N 47°17' W 122°25'0 0.0
2015-Jun-29 10:33N 47°17' W 122°25'0 0.0
2015-Jun-29 09:30N 47°17' W 122°25'0 0.0
2015-Jun-29 08:33N 47°17' W 122°25'0 0.0
2015-Jun-29 07:33N 47°17' W 122°25'0 0.0
2015-Jun-29 06:33N 47°17' W 122°25'0 0.0
2015-Jun-29 05:33N 47°17' W 122°25'0 0.0
2015-Jun-29 04:33N 47°17' W 122°25'0 0.0
2015-Jun-29 03:33N 47°17' W 122°25'0 0.0
2015-Jun-29 02:33N 47°17' W 122°25'0 0.0
2015-Jun-29 01:33N 47°17' W 122°25'0 0.0
2015-Jun-29 00:30N 47°17' W 122°25'0 0.0
2015-Jun-28 23:33N 47°17' W 122°25'0 0.0
2015-Jun-28 22:33N 47°17' W 122°25'0 0.0
2015-Jun-28 21:33N 47°17' W 122°25'0 0.0
2015-Jun-28 20:30N 47°17' W 122°25'5 5.5
2015-Jun-28 19:33N 47°22' W 122°24'1717.3
2015-Jun-28 18:33N 47°39' W 122°28'1919.3
2015-Jun-28 17:33N 47°58' W 122°35'1918.8
2015-Jun-28 16:33N 48°11' W 122°54'1919.0
2015-Jun-28 15:33N 48°10' W 123°23'1413.8
2015-Jun-28 14:33N 48°13' W 123°43'1414.2
2015-Jun-28 13:33N 48°16' W 124°04'1616.1
2015-Jun-28 12:33N 48°23' W 124°26'1414.0
2015-Jun-28 11:33N 48°29' W 124°45'1313.4
2015-Jun-28 10:33N 48°28' W 125°05'1414.2
2015-Jun-28 09:33N 48°28' W 125°27'1414.2
2015-Jun-28 08:33N 48°29' W 125°48'1414.4
2015-Jun-28 07:33N 48°29' W 126°10'1514.7
2015-Jun-28 06:33N 48°29' W 126°32'1514.7
2015-Jun-28 05:33N 48°30' W 126°54'1514.8
2015-Jun-28 04:33N 48°30' W 127°16'1514.9
2015-Jun-28 03:33N 48°30' W 127°39'1614.8
2015-Jun-28 02:29N 48°31' W 128°03'9 7.6
2015-Jun-28 01:14N 48°31' W 128°17'1 1.5
2015-Jun-28 00:28N 48°31' W 128°19'1 0.7
2015-Jun-27 23:33N 48°31' W 128°20'4 4.1
2015-Jun-27 22:28N 48°31' W 128°27'1314.0
2015-Jun-27 21:32N 48°32' W 128°46'3013.9
2015-Jun-27 19:22N 48°32' W 129°32'2915.9
2015-Jun-27 17:33N 48°32' W 130°15'2018.8
2015-Jun-27 16:29N 48°32' W 130°45'2519.0
2015-Jun-27 15:10N 48°31' W 131°23'  

Dump ship's entire track history